Time;durP1;ratioP1;P1;durP2;ratioP2;P2;SDS_P1;SDS_P2;PMS_P1;PMS_P2;Temp;Humidity;BMP_temperature;BMP_pressure;BME280_temperature;BME280_humidity;BME280_pressure;Samples;Min_cycle;Max_cycle;Signal;HPM_P1;HPM_P2
2021/01/30 00:01:54;;;;;;;16.85;12.13;;;;;;;0.28;66.51;94524.67;1736899;81;21081;-49
2021/01/30 00:04:22;;;;;;;21.60;12.30;;;;;;;0.33;66.41;94536.70;1718837;81;21503;-51
2021/01/30 00:06:54;;;;;;;20.35;12.35;;;;;;;0.40;66.33;94533.31;1737889;81;21119;-50
2021/01/30 00:09:22;;;;;;;20.30;12.63;;;;;;;0.40;65.89;94516.73;1734079;81;21094;-50
2021/01/30 00:11:53;;;;;;;18.30;11.22;;;;;;;0.40;65.89;94516.73;1738553;82;25810;-51
2021/01/30 00:14:30;;;;;;;18.52;12.35;;;;;;;0.34;66.00;94505.16;1737644;82;21115;-51
2021/01/30 00:17:00;;;;;;;23.02;13.95;;;;;;;0.28;66.12;94502.55;1760871;81;21475;-51
2021/01/30 00:19:29;;;;;;;19.37;12.68;;;;;;;0.25;66.45;94486.63;1701949;84;21162;-51
2021/01/30 00:22:00;;;;;;;21.23;12.78;;;;;;;0.25;66.45;94486.63;1765189;80;21149;-51
2021/01/30 00:24:29;;;;;;;21.33;12.90;;;;;;;0.31;66.30;94484.95;1742566;81;21164;-51
2021/01/30 00:27:00;;;;;;;22.35;13.55;;;;;;;0.37;66.18;94479.45;1737819;82;21173;-51
2021/01/30 00:29:31;;;;;;;19.12;12.45;;;;;;;0.45;66.05;94476.42;1754029;81;21503;-50
2021/01/30 00:31:59;;;;;;;20.77;13.28;;;;;;;0.50;65.69;94474.39;1737843;82;21122;-50
2021/01/30 00:34:28;;;;;;;23.50;13.22;;;;;;;0.52;65.73;94485.31;1737942;82;21178;-51
2021/01/30 00:36:57;;;;;;;21.20;12.65;;;;;;;0.63;65.76;94480.80;1740153;81;21205;-50
2021/01/30 00:39:24;;;;;;;22.75;13.45;;;;;;;0.81;65.31;94470.66;1740065;82;21499;-50
2021/01/30 00:41:51;;;;;;;23.73;13.95;;;;;;;0.94;64.76;94473.66;1740299;82;21066;-50
2021/01/30 00:44:19;;;;;;;19.60;12.70;;;;;;;1.05;64.54;94464.82;1739145;81;21137;-50
2021/01/30 00:46:50;;;;;;;21.07;13.35;;;;;;;1.16;64.02;94465.39;1737901;82;21614;-50
2021/01/30 00:49:18;;;;;;;18.17;12.53;;;;;;;1.19;63.78;94460.08;1751804;81;21221;-50
2021/01/30 00:51:45;;;;;;;18.27;12.30;;;;;;;1.22;63.42;94464.98;1737667;82;21098;-51
2021/01/30 00:54:14;;;;;;;20.35;12.85;;;;;;;1.09;63.50;94459.41;1739994;82;21054;-50
2021/01/30 00:56:41;;;;;;;20.17;13.43;;;;;;;0.96;63.83;94462.91;1740369;82;21059;-50
2021/01/30 00:59:09;;;;;;;21.25;13.90;;;;;;;0.84;64.04;94453.02;1743518;81;21123;-48
2021/01/30 01:01:39;;;;;;;20.52;13.50;;;;;;;0.69;64.45;94456.97;1716834;82;23622;-50
2021/01/30 01:04:06;;;;;;;20.32;13.80;;;;;;;0.65;64.73;94449.13;1740418;81;21165;-50
2021/01/30 01:06:34;;;;;;;22.42;14.75;;;;;;;0.64;64.96;94449.23;1737916;82;21073;-50
2021/01/30 01:09:07;;;;;;;21.23;14.35;;;;;;;0.73;64.98;94448.64;1738037;82;21093;-50
2021/01/30 01:11:35;;;;;;;18.55;13.20;;;;;;;0.87;64.75;94445.16;1738659;81;21070;-50
2021/01/30 01:14:03;;;;;;;24.57;14.18;;;;;;;1.01;64.45;94440.42;1739068;81;21461;-50
2021/01/30 01:16:31;;;;;;;23.05;14.33;;;;;;;1.18;64.05;94436.72;1768453;81;21531;-50
2021/01/30 01:18:59;;;;;;;22.27;14.25;;;;;;;1.25;63.57;94441.31;1740763;81;21554;-50
2021/01/30 01:21:27;;;;;;;19.12;13.28;;;;;;;1.19;63.46;94431.98;1737979;81;21228;-51
2021/01/30 01:23:54;;;;;;;22.30;14.50;;;;;;;1.19;63.46;94431.98;1749410;81;21060;-50
2021/01/30 01:26:22;;;;;;;19.95;13.13;;;;;;;1.25;63.48;94427.27;1737872;82;22108;-50
2021/01/30 01:28:50;;;;;;;19.17;13.08;;;;;;;1.35;62.68;94410.84;1746961;81;21996;-50
2021/01/30 01:31:19;;;;;;;22.87;14.63;;;;;;;1.35;62.68;94410.84;1738279;81;21165;-50
2021/01/30 01:33:46;;;;;;;21.05;13.90;;;;;;;1.10;63.30;94411.25;1748309;81;21189;-50
2021/01/30 01:36:17;;;;;;;25.60;14.25;;;;;;;0.98;63.72;94401.85;1747192;81;21059;-50
2021/01/30 01:38:44;;;;;;;21.35;14.80;;;;;;;0.78;64.13;94398.56;1739504;81;21247;-51
2021/01/30 01:41:12;;;;;;;23.90;14.60;;;;;;;0.66;64.63;94403.56;1743463;81;21166;-49
2021/01/30 01:43:39;;;;;;;21.85;14.80;;;;;;;0.76;64.73;94402.49;1753269;81;21134;-50
2021/01/30 01:46:24;;;;;;;25.03;15.73;;;;;;;0.89;64.61;94405.05;1740225;82;21165;-50
2021/01/30 01:49:18;;;;;;;22.85;15.60;;;;;;;0.99;64.29;94392.00;1721898;82;21486;-50
2021/01/30 01:52:03;;;;;;;29.18;18.23;;;;;;;0.94;64.23;94385.56;1711325;81;21392;-52
2021/01/30 01:54:32;;;;;;;23.62;14.87;;;;;;;0.69;64.77;94402.52;1737811;82;21146;-50
2021/01/30 01:57:11;;;;;;;21.90;14.38;;;;;;;0.61;65.29;94392.01;1737993;82;21080;-50
2021/01/30 01:59:45;;;;;;;24.10;14.33;;;;;;;0.57;65.46;94393.14;1752329;81;21126;-51
2021/01/30 02:02:13;;;;;;;27.73;16.62;;;;;;;0.54;65.59;94389.05;1743717;81;21058;-51
2021/01/30 02:05:07;;;;;;;23.20;14.58;;;;;;;0.44;65.76;94394.41;1757321;81;21545;-50
2021/01/30 02:07:45;;;;;;;22.58;14.58;;;;;;;0.43;66.02;94383.83;1740807;81;21079;-49
2021/01/30 02:10:16;;;;;;;22.02;14.00;;;;;;;0.40;66.00;94373.39;1738155;82;21072;-50
2021/01/30 02:12:43;;;;;;;22.13;14.50;;;;;;;0.31;66.41;94375.26;1745747;81;21090;-50
2021/01/30 02:15:12;;;;;;;21.83;13.83;;;;;;;0.21;66.79;94369.13;1739342;81;21077;-50
2021/01/30 02:18:07;;;;;;;22.20;15.00;;;;;;;0.09;67.12;94368.20;1756859;81;21378;-51
2021/01/30 02:21:07;;;;;;;25.37;14.98;;;;;;;0.05;67.29;94385.88;1738973;82;21197;-50
2021/01/30 02:24:14;;;;;;;24.00;15.40;;;;;;;0.18;67.48;94390.53;1756858;80;21181;-49
2021/01/30 02:27:08;;;;;;;23.12;14.65;;;;;;;0.47;67.15;94395.48;1754478;80;21491;-49
2021/01/30 02:30:32;;;;;;;25.20;15.55;;;;;;;0.73;66.38;94391.20;1728135;82;21612;-50
2021/01/30 02:33:43;;;;;;;23.65;15.20;;;;;;;1.09;65.22;94380.70;1745587;82;21212;-50
2021/01/30 02:36:32;;;;;;;25.85;15.60;;;;;;;1.09;65.22;94380.70;1745900;82;21133;-50
2021/01/30 02:39:21;;;;;;;27.13;14.93;;;;;;;1.20;64.59;94379.52;1755349;80;21169;-49
2021/01/30 02:41:54;;;;;;;23.05;15.45;;;;;;;1.29;64.19;94380.60;1746001;82;21125;-50
2021/01/30 02:44:21;;;;;;;22.55;15.20;;;;;;;1.29;63.98;94376.77;1745741;82;21058;-50
2021/01/30 02:46:56;;;;;;;24.92;15.43;;;;;;;1.34;63.90;94373.91;1745737;82;21212;-50
2021/01/30 02:49:30;;;;;;;23.07;15.85;;;;;;;1.47;63.72;94383.62;1761478;80;21074;-50
2021/01/30 02:52:03;;;;;;;25.72;16.07;;;;;;;1.60;63.38;94375.91;1756615;80;21101;-51
2021/01/30 02:54:33;;;;;;;22.07;16.17;;;;;;;1.72;63.00;94371.19;1745655;80;21122;-49
2021/01/30 02:57:00;;;;;;;28.17;15.78;;;;;;;1.84;62.66;94365.22;1746247;80;21169;-50
2021/01/30 02:59:28;;;;;;;24.47;16.15;;;;;;;1.91;62.33;94357.92;1745653;82;21211;-50
2021/01/30 03:01:56;;;;;;;23.90;15.05;;;;;;;1.95;62.13;94361.88;1745763;81;21074;-49
2021/01/30 03:04:26;;;;;;;23.35;16.17;;;;;;;1.97;61.95;94370.28;1670642;82;21062;-50
2021/01/30 03:07:02;;;;;;;23.77;16.57;;;;;;;1.97;62.00;94378.39;1754903;80;21074;-50
2021/01/30 03:09:46;;;;;;;26.68;17.70;;;;;;;2.05;62.06;94383.77;1745387;82;21137;-51
2021/01/30 03:12:23;;;;;;;25.68;16.27;;;;;;;2.14;61.86;94372.08;1745761;82;21370;-50
2021/01/30 03:14:56;;;;;;;23.12;15.93;;;;;;;2.18;61.56;94367.07;1745904;80;21573;-50
2021/01/30 03:17:25;;;;;;;22.42;15.63;;;;;;;2.11;61.45;94362.87;1745378;82;21071;-50
2021/01/30 03:19:55;;;;;;;27.42;15.95;;;;;;;2.10;61.72;94368.09;1745648;82;21124;-50
2021/01/30 03:22:23;;;;;;;;;;;;;;;2.15;61.61;94361.70;1749931;80;21134;-50
2021/01/30 03:24:50;;;;;;;23.97;16.90;;;;;;;2.20;61.54;94375.00;1740501;81;21158;-50
2021/01/30 03:27:22;;;;;;;26.97;17.25;;;;;;;2.23;61.43;94370.58;1743986;81;21856;-49
2021/01/30 03:29:50;;;;;;;24.18;17.40;;;;;;;2.28;61.31;94359.54;1700980;84;21158;-50
2021/01/30 03:32:19;;;;;;;24.10;17.12;;;;;;;2.31;61.28;94357.56;1741738;81;21128;-50
2021/01/30 03:34:48;;;;;;;27.13;16.60;;;;;;;2.34;61.13;94357.34;1737957;82;21170;-50
2021/01/30 03:37:16;;;;;;;27.42;18.02;;;;;;;2.35;61.01;94346.19;1738875;81;22300;-49
2021/01/30 03:39:43;;;;;;;27.07;16.35;;;;;;;2.36;61.03;94343.96;1737856;81;21521;-51
2021/01/30 03:42:11;;;;;;;29.10;17.30;;;;;;;2.36;60.90;94349.55;1737809;82;21121;-51
2021/01/30 03:44:39;;;;;;;27.02;17.73;;;;;;;2.31;60.96;94351.64;1737879;82;21590;-50
2021/01/30 03:47:06;;;;;;;29.57;18.52;;;;;;;2.27;61.05;94362.58;1754466;81;21500;-50
2021/01/30 03:49:34;;;;;;;29.45;18.90;;;;;;;2.26;61.19;94363.97;1768502;81;21482;-50
2021/01/30 03:52:02;;;;;;;31.17;18.80;;;;;;;2.25;61.26;94366.97;1744345;81;21083;-50
2021/01/30 03:54:30;;;;;;;35.78;19.92;;;;;;;2.26;61.27;94357.56;1740326;82;21150;-50
2021/01/30 03:56:58;;;;;;;28.20;18.62;;;;;;;2.24;61.33;94347.89;1741756;81;21124;-50
2021/01/30 03:59:26;;;;;;;31.85;19.02;;;;;;;2.25;61.48;94361.84;1737785;82;21097;-50
2021/01/30 04:01:53;;;;;;;29.40;18.40;;;;;;;2.27;61.42;94363.85;1740166;82;22036;-49
2021/01/30 04:04:23;;;;;;;30.70;19.48;;;;;;;2.28;61.40;94361.63;1740164;82;21487;-49
2021/01/30 04:06:51;;;;;;;29.98;19.17;;;;;;;2.31;61.27;94361.41;1740025;82;21546;-51
2021/01/30 04:09:19;;;;;;;30.40;19.07;;;;;;;2.35;61.15;94361.98;1740371;82;21149;-49
2021/01/30 04:11:47;;;;;;;28.62;19.25;;;;;;;2.38;61.09;94359.20;1738434;81;21162;-49
2021/01/30 04:14:15;;;;;;;29.63;18.10;;;;;;;2.42;61.03;94360.63;1739852;81;23500;-50
2021/01/30 04:16:43;;;;;;;29.12;18.73;;;;;;;2.46;60.88;94366.33;1737745;82;21528;-51
2021/01/30 04:19:11;;;;;;;31.00;19.10;;;;;;;2.47;60.83;94370.53;1737776;82;21126;-51
2021/01/30 04:21:38;;;;;;;29.95;18.80;;;;;;;2.45;60.78;94373.20;1716857;82;21162;-50
2021/01/30 04:24:07;;;;;;;29.35;19.95;;;;;;;2.37;60.85;94376.79;1735098;82;21075;-50
2021/01/30 04:26:35;;;;;;;;;;;;;;;2.27;61.13;94381.77;1748721;81;21251;-50
2021/01/30 04:29:02;;;;;;;31.73;19.85;;;;;;;2.28;61.33;94382.57;1743709;81;20219;-50
2021/01/30 04:31:30;;;;;;;34.23;20.92;;;;;;;2.31;61.34;94383.16;1736029;81;21121;-51
2021/01/30 04:33:58;;;;;;;36.80;22.10;;;;;;;2.34;61.26;94382.13;1739235;81;21154;-50
2021/01/30 04:36:26;;;;;;;38.42;22.27;;;;;;;2.35;61.16;94385.86;1733770;82;21067;-50
2021/01/30 04:38:53;;;;;;;36.35;21.87;;;;;;;2.37;61.21;94387.84;1735594;81;21714;-50
2021/01/30 04:41:56;;;;;;;39.10;22.55;;;;;;;2.41;61.17;94397.38;1739522;81;21130;-51
2021/01/30 04:44:35;;;;;;;37.78;22.45;;;;;;;2.42;61.08;94391.78;1733575;81;21069;-50
2021/01/30 04:47:50;;;;;;;40.17;24.30;;;;;;;2.43;61.02;94394.23;1718011;82;21508;-50
2021/01/30 04:50:34;;;;;;;40.80;23.67;;;;;;;2.41;60.97;94401.22;1733990;81;21138;-50
2021/01/30 04:53:19;;;;;;;42.17;25.00;;;;;;;2.34;61.20;94408.53;1735837;81;22162;-50
2021/01/30 04:56:01;;;;;;;41.63;22.55;;;;;;;2.35;61.37;94412.73;1733589;82;21180;-50
2021/01/30 04:59:02;;;;;;;39.35;23.47;;;;;;;2.39;61.35;94404.36;1733314;82;21165;-49
2021/01/30 05:01:57;;;;;;;43.42;22.37;;;;;;;2.45;61.22;94409.04;1733415;82;21157;-50
2021/01/30 05:04:40;;;;;;;45.33;24.40;;;;;;;2.47;61.18;94412.77;1734162;81;21058;-50
2021/01/30 05:07:46;;;;;;;38.98;22.45;;;;;;;2.46;61.15;94413.21;1735700;81;21197;-50
2021/01/30 05:10:30;;;;;;;39.23;23.27;;;;;;;2.46;61.19;94408.56;1748311;81;21082;-51
2021/01/30 05:13:10;;;;;;;32.17;20.20;;;;;;;2.49;61.14;94401.94;1736821;81;21118;-51
2021/01/30 05:15:48;;;;;;;;;;;;;;;2.50;61.11;94405.67;1736260;82;21613;-51
2021/01/30 05:18:36;;;;;;;28.42;17.42;;;;;;;2.42;61.13;94404.14;1733647;82;20277;-51
2021/01/30 05:21:15;;;;;;;25.88;17.35;;;;;;;2.20;61.66;94410.83;1733630;82;21209;-49
2021/01/30 05:23:46;;;;;;;29.98;17.82;;;;;;;2.17;62.24;94416.60;1743040;81;21110;-50
2021/01/30 05:26:41;;;;;;;27.48;19.15;;;;;;;2.20;62.34;94421.50;1740539;81;21082;-50
2021/01/30 05:29:22;;;;;;;26.70;18.35;;;;;;;2.20;62.45;94421.06;1740508;81;21579;-50
2021/01/30 05:32:04;;;;;;;28.87;17.30;;;;;;;2.16;62.47;94420.11;1736409;81;21565;-51
2021/01/30 05:34:56;;;;;;;28.98;18.00;;;;;;;2.11;62.68;94413.23;1748989;81;22106;-52
2021/01/30 05:37:31;;;;;;;29.87;18.48;;;;;;;2.07;62.82;94427.15;1694508;84;21152;-51
2021/01/30 05:40:16;;;;;;;27.93;18.57;;;;;;;2.04;63.03;94423.09;1682231;84;21166;-50
2021/01/30 05:43:19;;;;;;;25.45;17.48;;;;;;;2.04;63.21;94423.09;1740105;81;21162;-50
2021/01/30 05:45:57;;;;;;;26.05;18.10;;;;;;;2.06;63.15;94426.34;1739018;81;21169;-50
2021/01/30 05:48:29;;;;;;;26.52;17.62;;;;;;;1.96;63.37;94421.53;1722217;82;21390;-50
2021/01/30 05:51:21;;;;;;;22.75;16.12;;;;;;;1.92;63.50;94424.75;1742571;81;21204;-50
2021/01/30 05:53:48;;;;;;;25.60;16.70;;;;;;;1.94;63.69;94428.04;1740458;81;21581;-53
2021/01/30 05:56:16;;;;;;;26.70;17.85;;;;;;;1.99;63.66;94420.85;1738050;82;21540;-52
2021/01/30 05:58:45;;;;;;;27.98;18.05;;;;;;;2.06;63.60;94422.98;1751218;81;21059;-53
2021/01/30 06:01:26;;;;;;;28.60;19.00;;;;;;;2.12;63.50;94424.63;1737939;82;21526;-51
2021/01/30 06:04:11;;;;;;;27.13;18.20;;;;;;;2.14;63.34;94425.80;1737846;82;21089;-51
2021/01/30 06:06:53;;;;;;;31.23;20.52;;;;;;;2.18;63.25;94428.48;1738423;81;21661;-50
2021/01/30 06:09:42;;;;;;;27.87;19.23;;;;;;;2.20;63.13;94424.06;1737883;82;21126;-51
2021/01/30 06:12:32;;;;;;;29.60;19.20;;;;;;;2.23;63.07;94418.72;1739207;81;21103;-51
2021/01/30 06:15:20;;;;;;;31.15;20.23;;;;;;;2.27;62.89;94422.71;1761403;81;21210;-51
2021/01/30 06:17:48;;;;;;;29.70;19.85;;;;;;;2.24;62.91;94420.81;1670674;85;21170;-51
2021/01/30 06:20:25;;;;;;;36.53;22.75;;;;;;;2.20;63.07;94421.50;1755629;81;21500;-51
2021/01/30 06:23:08;;;;;;;35.92;21.27;;;;;;;2.19;63.02;94429.65;1746032;81;21483;-51
2021/01/30 06:25:39;;;;;;;26.75;18.52;;;;;;;2.09;63.33;94422.29;1740195;82;21570;-51
2021/01/30 06:28:18;;;;;;;28.55;18.57;;;;;;;2.07;63.28;94430.52;1739120;82;22290;-51
2021/01/30 06:30:46;;;;;;;32.50;19.07;;;;;;;1.96;63.58;94430.02;1739567;82;21506;-50
2021/01/30 06:33:34;;;;;;;29.75;19.48;;;;;;;1.83;63.77;94432.62;1740344;82;21055;-51
2021/01/30 06:36:19;;;;;;;28.32;18.98;;;;;;;1.77;64.28;94440.72;1740331;82;21498;-50
2021/01/30 06:38:53;;;;;;;28.10;19.17;;;;;;;1.86;64.37;94441.83;1723019;82;21118;-52
2021/01/30 06:41:29;;;;;;;26.20;18.15;;;;;;;1.98;64.14;94440.14;1736433;81;22284;-52
2021/01/30 06:44:17;;;;;;;27.80;18.30;;;;;;;2.11;63.94;94438.34;1744684;81;21612;-52
2021/01/30 06:47:08;;;;;;;28.03;19.03;;;;;;;2.16;63.49;94431.62;1768632;81;21050;-51
2021/01/30 06:49:47;;;;;;;32.63;19.23;;;;;;;2.17;63.60;94440.91;1748756;81;21384;-51
2021/01/30 06:52:31;;;;;;;25.72;17.95;;;;;;;2.22;63.64;94437.58;1738064;82;21050;-52
2021/01/30 06:55:12;;;;;;;30.55;18.62;;;;;;;2.32;63.37;94434.70;1737967;82;22146;-51
2021/01/30 06:58:00;;;;;;;26.37;18.67;;;;;;;2.35;62.86;94431.92;1741157;81;21149;-51
2021/01/30 07:00:32;;;;;;;30.60;20.85;;;;;;;2.26;62.70;94431.77;1755211;81;21181;-52
2021/01/30 07:03:15;;;;;;;34.67;20.85;;;;;;;2.28;62.72;94429.44;1737918;82;21157;-51
2021/01/30 07:06:01;;;;;;;28.27;20.30;;;;;;;2.45;62.52;94432.08;1738977;81;21475;-52
2021/01/30 07:08:54;;;;;;;33.40;21.62;;;;;;;2.62;62.01;94418.50;1739619;81;21382;-52
2021/01/30 07:11:30;;;;;;;30.88;19.90;;;;;;;2.95;61.47;94413.88;1737673;81;21189;-52
2021/01/30 07:14:18;;;;;;;30.43;20.43;;;;;;;3.93;59.81;94408.08;1735649;80;21681;-51
2021/01/30 07:17:12;;;;;;;28.80;20.82;;;;;;;5.28;57.73;94419.81;1705588;82;21513;-56
2021/01/30 07:20:08;;;;;;;30.97;20.90;;;;;;;6.68;54.92;94410.75;1644400;85;21177;-56
2021/01/30 07:22:44;;;;;;;30.62;20.40;;;;;;;8.06;50.64;94413.47;1748728;81;21232;-56
2021/01/30 07:25:26;;;;;;;29.18;21.05;;;;;;;9.12;48.35;94409.33;1737715;82;21071;-57
2021/01/30 07:28:17;;;;;;;29.10;19.52;;;;;;;10.02;46.35;94418.78;1740315;81;21092;-56
2021/01/30 07:31:35;;;;;;;36.75;21.52;;;;;;;10.68;44.74;94415.01;1738973;81;21082;-57
2021/01/30 07:34:23;;;;;;;32.87;21.30;;;;;;;11.16;43.32;94413.33;1738038;82;21502;-56
2021/01/30 07:37:08;;;;;;;28.15;19.95;;;;;;;11.45;42.21;94411.16;1738526;81;21557;-56
2021/01/30 07:39:52;;;;;;;30.25;20.30;;;;;;;11.41;41.72;94409.38;1738846;81;21511;-55
2021/01/30 07:42:35;;;;;;;31.23;21.07;;;;;;;11.50;41.57;94413.59;1737888;81;21161;-55
2021/01/30 07:45:25;;;;;;;29.95;20.17;;;;;;;11.93;40.94;94408.89;1728203;81;21069;-57
2021/01/30 07:48:17;;;;;;;29.92;20.65;;;;;;;12.46;39.86;94412.17;1737804;82;21034;-57
2021/01/30 07:50:52;;;;;;;29.87;21.05;;;;;;;13.09;38.91;94406.28;1737794;82;21441;-56
2021/01/30 07:53:23;;;;;;;29.42;20.23;;;;;;;13.69;37.76;94408.97;1736385;81;21141;-56
2021/01/30 07:56:21;;;;;;;30.90;19.35;;;;;;;14.27;36.76;94411.14;1737914;82;21578;-57
2021/01/30 07:59:12;;;;;;;29.20;20.15;;;;;;;14.67;35.42;94410.77;1738305;82;21173;-56
2021/01/30 08:02:20;;;;;;;28.25;20.17;;;;;;;14.79;35.81;94405.36;1852280;76;22689;-57
2021/01/30 08:05:20;;;;;;;23.87;18.07;;;;;;;14.94;35.48;94404.48;1808613;79;21047;-58
2021/01/30 08:08:16;;;;;;;25.30;19.02;;;;;;;15.22;35.38;94405.80;1839468;78;21026;-56
2021/01/30 08:10:58;;;;;;;25.37;19.05;;;;;;;15.54;34.87;94403.58;1813004;78;21128;-55
2021/01/30 08:14:07;;;;;;;26.45;19.82;;;;;;;15.86;34.28;94407.41;1826261;76;21060;-56
2021/01/30 08:17:16;;;;;;;26.97;21.23;;;;;;;16.29;33.79;94414.20;1825739;78;21157;-55
2021/01/30 08:20:10;;;;;;;27.85;21.48;;;;;;;16.50;32.74;94408.02;1823658;78;21111;-54
2021/01/30 08:22:52;;;;;;;24.87;19.90;;;;;;;15.98;33.32;94411.06;1825567;78;21184;-56
2021/01/30 08:25:25;;;;;;;27.55;20.25;;;;;;;15.30;34.11;94410.88;1799277;79;21154;-56
2021/01/30 08:28:13;;;;;;;20.10;15.75;;;;;;;15.11;34.62;94418.87;1796823;79;21599;-55
2021/01/30 08:30:41;;;;;;;18.30;13.88;;;;;;;15.55;34.46;94418.27;1805433;79;21150;-55
2021/01/30 08:33:10;;;;;;;14.50;11.45;;;;;;;16.36;33.59;94428.93;1799606;79;21439;-55
2021/01/30 08:35:44;;;;;;;15.20;11.57;;;;;;;17.05;32.79;94430.96;1803756;79;21382;-56
2021/01/30 08:38:23;;;;;;;11.08;9.25;;;;;;;17.91;31.50;94433.22;1786641;79;21140;-56
2021/01/30 08:40:55;;;;;;;12.63;10.30;;;;;;;18.84;30.85;94437.76;1797611;79;21559;-55
2021/01/30 08:43:40;;;;;;;18.50;13.43;;;;;;;19.95;29.09;94427.50;1795786;79;21119;-55
2021/01/30 08:46:31;;;;;;;16.27;13.40;;;;;;;20.64;27.90;94433.89;1804920;79;21587;-56
2021/01/30 08:49:21;;;;;;;12.85;11.22;;;;;;;20.53;27.48;94437.55;1796224;79;22174;-54
2021/01/30 08:52:14;;;;;;;12.82;11.33;;;;;;;19.88;28.31;94443.37;1790546;79;21146;-54
2021/01/30 08:54:44;;;;;;;118.50;78.17;;;;;;;19.07;29.41;94457.70;1792071;79;21618;-54
2021/01/30 08:57:36;;;;;;;65.87;43.52;;;;;;;18.12;30.00;94461.50;1746720;81;21139;-54
2021/01/30 09:00:13;;;;;;;43.80;24.60;;;;;;;17.26;30.95;94451.44;1753374;81;21235;-54
2021/01/30 09:02:46;;;;;;;15.78;11.68;;;;;;;16.41;31.87;94448.45;1733438;81;22260;-54
2021/01/30 09:05:28;;;;;;;22.80;13.90;;;;;;;15.48;33.23;94456.12;1749182;81;21209;-54
2021/01/30 09:07:58;;;;;;;12.37;10.03;;;;;;;14.72;34.56;94456.72;1752153;81;21556;-54
2021/01/30 09:10:36;;;;;;;11.70;9.33;;;;;;;14.24;35.70;94456.35;1759305;80;21072;-54
2021/01/30 09:13:17;;;;;;;11.00;8.85;;;;;;;13.85;36.37;94456.17;1745338;80;21132;-54
2021/01/30 09:15:51;;;;;;;13.03;9.33;;;;;;;13.53;36.99;94449.83;1746579;81;21371;-55
2021/01/30 09:18:38;;;;;;;12.35;8.63;;;;;;;14.02;36.96;94450.28;1741420;80;21230;-54
2021/01/30 09:21:38;;;;;;;13.73;9.40;;;;;;;14.96;35.58;94452.89;1739164;80;21520;-55
2021/01/30 09:24:50;;;;;;;12.07;9.38;;;;;;;15.52;34.51;94448.70;1744665;80;21203;-55
2021/01/30 09:27:30;;;;;;;13.78;9.73;;;;;;;16.03;33.92;94437.95;1707173;80;21179;-56
2021/01/30 09:30:20;;;;;;;14.93;9.83;;;;;;;16.35;33.10;94441.70;1740546;80;22038;-56
2021/01/30 09:32:49;;;;;;;14.65;9.80;;;;;;;16.34;32.96;94441.38;1731825;80;21141;-54
2021/01/30 09:35:35;;;;;;;13.05;10.20;;;;;;;15.76;33.47;94438.33;1745742;80;21069;-56
2021/01/30 09:38:26;;;;;;;12.47;9.40;;;;;;;15.15;34.11;94440.19;1742865;80;21167;-55
2021/01/30 09:41:25;;;;;;;12.18;9.08;;;;;;;14.38;34.98;94443.78;1742874;82;21120;-52
2021/01/30 09:44:25;;;;;;;11.97;8.75;;;;;;;13.61;36.22;94434.11;1734653;82;22250;-56
2021/01/30 09:46:56;;;;;;;12.10;9.03;;;;;;;13.00;37.25;94433.39;1738800;81;21171;-58
2021/01/30 09:49:29;;;;;;;11.63;8.65;;;;;;;12.45;38.41;94424.84;1725897;82;21093;-58
2021/01/30 09:51:57;;;;;;;11.90;9.33;;;;;;;12.21;38.96;94433.62;1729519;82;21152;-58
2021/01/30 09:54:26;;;;;;;18.82;9.35;;;;;;;12.11;39.38;94429.44;1750556;81;21500;-58
2021/01/30 09:57:11;;;;;;;14.53;10.43;;;;;;;12.14;39.52;94422.59;1750707;82;22232;-58
2021/01/30 09:59:38;;;;;;;15.70;9.68;;;;;;;12.24;39.39;94418.98;1744777;82;21141;-58
2021/01/30 10:02:20;;;;;;;11.53;8.85;;;;;;;12.19;39.68;94422.56;1763585;81;21111;-58
2021/01/30 10:04:48;;;;;;;12.63;8.53;;;;;;;12.19;39.58;94416.06;1753522;81;21077;-62
2021/01/30 10:07:26;;;;;;;11.10;8.13;;;;;;;12.04;39.61;94416.81;1767401;80;21060;-58
2021/01/30 10:09:55;;;;;;;;;;;;;;;11.85;39.78;94414.59;1743626;80;21584;-57
2021/01/30 10:12:23;;;;;;;10.18;8.13;;;;;;;11.76;40.26;94408.64;1767568;80;20237;-57
2021/01/30 10:14:56;;;;;;;10.10;8.20;;;;;;;11.90;40.39;94410.50;1763154;80;21201;-58
2021/01/30 10:17:38;;;;;;;9.03;7.50;;;;;;;12.09;40.02;94405.91;1742412;81;21595;-58
2021/01/30 10:20:15;;;;;;;9.73;7.55;;;;;;;12.14;39.83;94407.50;1724809;82;21532;-57
2021/01/30 10:22:48;;;;;;;10.90;7.90;;;;;;;12.05;39.95;94403.31;1767655;79;21197;-58
2021/01/30 10:25:25;;;;;;;9.50;8.50;;;;;;;12.33;39.52;94402.33;1762086;81;21533;-58
2021/01/30 10:28:10;;;;;;;13.28;9.53;;;;;;;12.72;39.09;94391.00;1767282;80;21069;-58
2021/01/30 10:30:40;;;;;;;17.45;10.40;;;;;;;12.70;38.60;94387.77;1767308;80;21065;-58
2021/01/30 10:33:10;;;;;;;17.45;12.23;;;;;;;12.61;38.89;94381.00;1761670;80;21079;-59
2021/01/30 10:35:45;;;;;;;13.18;11.85;;;;;;;13.12;37.97;94372.59;1767530;81;21903;-58
2021/01/30 10:38:16;;;;;;;15.10;11.83;;;;;;;13.98;37.36;94370.33;1767540;81;21592;-58
2021/01/30 10:40:51;;;;;;;15.28;11.40;;;;;;;15.33;35.88;94366.56;1767458;80;21105;-59
2021/01/30 10:43:29;;;;;;;14.98;11.18;;;;;;;16.67;33.48;94371.79;1767314;80;21079;-57
2021/01/30 10:46:09;;;;;;;15.13;11.43;;;;;;;17.85;31.83;94363.98;1766896;80;21148;-57
2021/01/30 10:48:40;;;;;;;11.38;9.53;;;;;;;18.84;30.32;94351.85;1748672;81;21355;-57
2021/01/30 10:51:22;;;;;;;10.75;9.70;;;;;;;19.62;28.90;94362.38;1767485;81;21089;-57
2021/01/30 10:53:52;;;;;;;13.25;10.63;;;;;;;20.34;27.67;94359.08;1767528;81;21164;-58
2021/01/30 10:56:25;;;;;;;6.03;5.42;;;;;;;21.12;26.96;94346.80;1767437;80;21148;-57
2021/01/30 10:58:54;;;;;;;2.98;2.67;;;;;;;21.97;24.53;94346.48;1767585;80;21524;-58
2021/01/30 11:01:31;;;;;;;2.52;2.27;;;;;;;21.86;23.66;94343.65;1722985;81;22320;-58
2021/01/30 11:04:03;;;;;;;5.58;2.65;;;;;;;21.06;23.86;94335.84;1760293;81;21476;-59
2021/01/30 11:06:39;;;;;;;3.60;2.67;;;;;;;20.13;24.91;94341.14;1761997;80;21116;-58
2021/01/30 11:09:23;;;;;;;3.95;2.42;;;;;;;19.67;25.06;94333.58;1762092;80;21041;-58
2021/01/30 11:12:17;;;;;;;3.42;2.98;;;;;;;19.20;25.88;94327.99;1762110;81;21109;-58
2021/01/30 11:14:45;;;;;;;2.00;1.67;;;;;;;18.75;26.84;94338.67;1761337;80;21368;-58
2021/01/30 11:17:27;;;;;;;3.52;2.52;;;;;;;19.16;26.20;94333.89;1761062;80;21130;-57
2021/01/30 11:19:55;;;;;;;3.37;2.37;;;;;;;19.14;25.60;94328.86;1747424;81;21065;-59
2021/01/30 11:22:25;;;;;;;2.70;2.07;;;;;;;18.60;26.42;94329.77;1762222;80;21149;-59
2021/01/30 11:25:12;;;;;;;3.92;2.30;;;;;;;17.80;26.97;94316.59;1762114;81;21112;-57
2021/01/30 11:27:45;;;;;;;2.22;2.02;;;;;;;16.96;28.44;94327.89;1762093;81;22094;-57
2021/01/30 11:30:22;;;;;;;3.95;2.12;;;;;;;16.96;28.46;94321.34;1761811;80;21554;-61
2021/01/30 11:32:57;;;;;;;6.35;2.15;;;;;;;16.34;29.33;94318.91;1760311;80;21129;-57
2021/01/30 11:35:36;;;;;;;3.35;1.55;;;;;;;15.64;29.91;94315.98;1762087;80;21493;-56
2021/01/30 11:38:08;;;;;;;3.10;1.45;;;;;;;14.42;31.61;94313.77;1762096;81;21073;-57
2021/01/30 11:40:36;;;;;;;3.37;2.10;;;;;;;13.04;33.83;94328.73;1756365;80;21513;-57
2021/01/30 11:43:04;;;;;;;2.15;1.95;;;;;;;12.03;35.83;94333.31;1762142;81;21077;-57
2021/01/30 11:45:32;;;;;;;2.50;1.95;;;;;;;11.17;37.52;94334.50;1760766;80;21145;-57
2021/01/30 11:48:00;;;;;;;2.80;1.90;;;;;;;10.43;39.19;94329.94;1761485;81;21171;-58
2021/01/30 11:50:28;;;;;;;2.70;2.33;;;;;;;9.69;41.11;94331.92;1762312;80;21189;-57
2021/01/30 11:53:10;;;;;;;2.50;2.00;;;;;;;8.99;42.77;94320.00;1762155;81;21971;-58
2021/01/30 11:55:38;;;;;;;2.40;2.20;;;;;;;8.59;43.74;94329.64;1739825;81;21095;-57
2021/01/30 11:58:10;;;;;;;3.22;2.05;;;;;;;8.54;44.31;94329.30;1762045;81;21069;-57
2021/01/30 12:00:38;;;;;;;2.47;1.72;;;;;;;8.66;44.11;94326.28;1761887;80;21075;-58
2021/01/30 12:03:06;;;;;;;1.85;1.65;;;;;;;8.58;43.71;94326.23;1755240;80;21486;-58
2021/01/30 12:05:41;;;;;;;2.42;1.52;;;;;;;8.33;44.17;94335.56;1758855;81;21194;-57
2021/01/30 12:08:08;;;;;;;2.85;2.55;;;;;;;8.26;44.61;94335.84;1758718;81;21077;-57
2021/01/30 12:10:36;;;;;;;2.85;1.37;;;;;;;8.22;44.70;94340.50;1758868;81;21073;-57
2021/01/30 12:13:04;;;;;;;1.35;1.25;;;;;;;8.17;44.91;94323.80;1759001;81;21462;-56
2021/01/30 12:15:33;;;;;;;1.20;1.10;;;;;;;8.14;44.99;94326.22;1753556;80;21163;-57